Terminal Aerodrome Forecast
Issued by NWS Paducah, KY

Home | Current Version | Previous Version | Text Only | Print | Product List | Glossary On
Versions: 1 2 3 4 5 6 7 8 9 10 11 12 13 14 15 16
737
FTUS43 KPAH 291120
TAFEVV
TAF
KEVV 291120Z 2912/3012 30006KT P6SM BKN015
     FM291330 33006KT P6SM VCSH BKN025 OVC060
     FM291700 35010G17KT P6SM BKN050
     FM300100 34006KT P6SM SKC=

USA.gov is the U.S. government's official web portal to all federal, state and local government web resources and services.